sensor_id;sensor_type;location;lat;lon;timestamp;P1;durP1;ratioP1;P2;durP2;ratioP2
39772;SDS011;25451;51.960;6.250;2023-07-20T00:02:11;3.97;;;2.00;;
39772;SDS011;25451;51.960;6.250;2023-07-20T00:04:37;4.53;;;2.30;;
39772;SDS011;25451;51.960;6.250;2023-07-20T00:07:03;4.53;;;2.50;;
39772;SDS011;25451;51.960;6.250;2023-07-20T00:09:28;4.68;;;2.53;;
39772;SDS011;25451;51.960;6.250;2023-07-20T00:11:54;4.67;;;2.40;;
39772;SDS011;25451;51.960;6.250;2023-07-20T00:14:20;4.80;;;2.40;;
39772;SDS011;25451;51.960;6.250;2023-07-20T00:16:45;5.35;;;2.90;;
39772;SDS011;25451;51.960;6.250;2023-07-20T00:19:11;5.93;;;3.17;;
39772;SDS011;25451;51.960;6.250;2023-07-20T00:21:37;5.95;;;2.80;;
39772;SDS011;25451;51.960;6.250;2023-07-20T00:24:05;7.32;;;3.28;;
39772;SDS011;25451;51.960;6.250;2023-07-20T00:26:30;5.13;;;3.30;;
39772;SDS011;25451;51.960;6.250;2023-07-20T00:28:56;5.63;;;3.07;;
39772;SDS011;25451;51.960;6.250;2023-07-20T00:31:21;7.83;;;3.10;;
39772;SDS011;25451;51.960;6.250;2023-07-20T00:33:46;6.27;;;2.80;;
39772;SDS011;25451;51.960;6.250;2023-07-20T00:36:12;5.83;;;2.97;;
39772;SDS011;25451;51.960;6.250;2023-07-20T00:38:37;6.53;;;3.00;;
39772;SDS011;25451;51.960;6.250;2023-07-20T00:41:03;4.27;;;2.33;;
39772;SDS011;25451;51.960;6.250;2023-07-20T00:43:28;5.90;;;3.05;;
39772;SDS011;25451;51.960;6.250;2023-07-20T00:45:54;5.73;;;2.60;;
39772;SDS011;25451;51.960;6.250;2023-07-20T00:48:20;5.97;;;2.50;;
39772;SDS011;25451;51.960;6.250;2023-07-20T00:50:45;4.87;;;2.40;;
39772;SDS011;25451;51.960;6.250;2023-07-20T00:53:12;4.22;;;2.25;;
39772;SDS011;25451;51.960;6.250;2023-07-20T00:55:38;6.83;;;3.00;;
39772;SDS011;25451;51.960;6.250;2023-07-20T00:58:03;5.45;;;2.20;;
39772;SDS011;25451;51.960;6.250;2023-07-20T01:00:29;4.73;;;1.97;;
39772;SDS011;25451;51.960;6.250;2023-07-20T01:02:54;5.10;;;2.70;;
39772;SDS011;25451;51.960;6.250;2023-07-20T01:05:20;5.87;;;2.50;;
39772;SDS011;25451;51.960;6.250;2023-07-20T01:07:59;5.45;;;2.80;;
39772;SDS011;25451;51.960;6.250;2023-07-20T01:10:46;4.78;;;2.70;;
39772;SDS011;25451;51.960;6.250;2023-07-20T01:13:18;6.55;;;2.67;;
39772;SDS011;25451;51.960;6.250;2023-07-20T01:15:50;4.45;;;2.05;;
39772;SDS011;25451;51.960;6.250;2023-07-20T01:18:18;4.80;;;2.70;;
39772;SDS011;25451;51.960;6.250;2023-07-20T01:20:43;5.30;;;2.60;;
39772;SDS011;25451;51.960;6.250;2023-07-20T01:23:18;3.60;;;2.15;;
39772;SDS011;25451;51.960;6.250;2023-07-20T01:31:36;4.40;;;2.55;;
39772;SDS011;25451;51.960;6.250;2023-07-20T01:34:04;5.95;;;2.80;;
39772;SDS011;25451;51.960;6.250;2023-07-20T01:36:33;5.32;;;2.55;;
39772;SDS011;25451;51.960;6.250;2023-07-20T01:39:00;4.80;;;2.50;;
39772;SDS011;25451;51.960;6.250;2023-07-20T01:41:25;3.97;;;2.30;;
39772;SDS011;25451;51.960;6.250;2023-07-20T01:43:51;4.20;;;2.40;;
39772;SDS011;25451;51.960;6.250;2023-07-20T01:46:16;5.30;;;2.30;;
39772;SDS011;25451;51.960;6.250;2023-07-20T01:48:42;3.20;;;1.80;;
39772;SDS011;25451;51.960;6.250;2023-07-20T01:51:07;3.42;;;1.80;;
39772;SDS011;25451;51.960;6.250;2023-07-20T01:53:33;2.93;;;1.70;;
39772;SDS011;25451;51.960;6.250;2023-07-20T01:55:59;5.05;;;1.70;;
39772;SDS011;25451;51.960;6.250;2023-07-20T01:58:24;3.77;;;1.77;;
39772;SDS011;25451;51.960;6.250;2023-07-20T02:00:49;2.43;;;1.50;;
39772;SDS011;25451;51.960;6.250;2023-07-20T02:03:15;3.60;;;1.60;;
39772;SDS011;25451;51.960;6.250;2023-07-20T02:05:43;2.67;;;1.23;;
39772;SDS011;25451;51.960;6.250;2023-07-20T02:08:09;2.33;;;1.50;;
39772;SDS011;25451;51.960;6.250;2023-07-20T02:10:34;2.58;;;1.35;;
39772;SDS011;25451;51.960;6.250;2023-07-20T02:13:00;1.77;;;1.20;;
39772;SDS011;25451;51.960;6.250;2023-07-20T02:15:25;2.40;;;1.20;;
39772;SDS011;25451;51.960;6.250;2023-07-20T02:17:52;3.67;;;1.27;;
39772;SDS011;25451;51.960;6.250;2023-07-20T02:20:17;2.03;;;1.10;;
39772;SDS011;25451;51.960;6.250;2023-07-20T02:22:44;2.30;;;1.10;;
39772;SDS011;25451;51.960;6.250;2023-07-20T02:25:10;2.70;;;1.40;;
39772;SDS011;25451;51.960;6.250;2023-07-20T02:27:36;2.50;;;1.60;;
39772;SDS011;25451;51.960;6.250;2023-07-20T02:30:02;2.47;;;1.27;;
39772;SDS011;25451;51.960;6.250;2023-07-20T02:32:28;2.60;;;1.30;;
39772;SDS011;25451;51.960;6.250;2023-07-20T02:34:54;2.13;;;1.08;;
39772;SDS011;25451;51.960;6.250;2023-07-20T02:37:19;2.00;;;1.30;;
39772;SDS011;25451;51.960;6.250;2023-07-20T02:39:45;2.43;;;1.10;;
39772;SDS011;25451;51.960;6.250;2023-07-20T02:42:10;2.50;;;1.20;;
39772;SDS011;25451;51.960;6.250;2023-07-20T02:44:36;2.80;;;1.00;;
39772;SDS011;25451;51.960;6.250;2023-07-20T02:47:01;2.27;;;1.30;;
39772;SDS011;25451;51.960;6.250;2023-07-20T02:49:27;3.33;;;1.30;;
39772;SDS011;25451;51.960;6.250;2023-07-20T02:51:52;1.85;;;1.20;;
39772;SDS011;25451;51.960;6.250;2023-07-20T02:54:18;2.13;;;1.00;;
39772;SDS011;25451;51.960;6.250;2023-07-20T02:56:43;2.40;;;1.37;;
39772;SDS011;25451;51.960;6.250;2023-07-20T02:59:08;2.10;;;1.10;;
39772;SDS011;25451;51.960;6.250;2023-07-20T03:01:34;2.58;;;1.33;;
39772;SDS011;25451;51.960;6.250;2023-07-20T03:03:59;1.67;;;1.13;;
39772;SDS011;25451;51.960;6.250;2023-07-20T03:06:25;2.20;;;1.27;;
39772;SDS011;25451;51.960;6.250;2023-07-20T03:08:50;1.97;;;1.10;;
39772;SDS011;25451;51.960;6.250;2023-07-20T03:11:17;1.63;;;1.13;;
39772;SDS011;25451;51.960;6.250;2023-07-20T03:13:43;2.60;;;1.50;;
39772;SDS011;25451;51.960;6.250;2023-07-20T03:16:09;3.10;;;1.50;;
39772;SDS011;25451;51.960;6.250;2023-07-20T03:18:36;3.35;;;1.50;;
39772;SDS011;25451;51.960;6.250;2023-07-20T03:21:05;2.30;;;1.38;;
39772;SDS011;25451;51.960;6.250;2023-07-20T03:23:32;1.85;;;1.10;;
39772;SDS011;25451;51.960;6.250;2023-07-20T03:25:57;2.25;;;1.10;;
39772;SDS011;25451;51.960;6.250;2023-07-20T03:28:23;2.13;;;1.20;;
39772;SDS011;25451;51.960;6.250;2023-07-20T03:30:57;2.17;;;1.30;;
39772;SDS011;25451;51.960;6.250;2023-07-20T03:33:26;2.25;;;1.10;;
39772;SDS011;25451;51.960;6.250;2023-07-20T03:35:53;2.53;;;1.30;;
39772;SDS011;25451;51.960;6.250;2023-07-20T03:38:19;2.03;;;1.05;;
39772;SDS011;25451;51.960;6.250;2023-07-20T03:40:51;2.05;;;1.25;;
39772;SDS011;25451;51.960;6.250;2023-07-20T03:43:21;3.25;;;1.48;;
39772;SDS011;25451;51.960;6.250;2023-07-20T03:45:47;2.53;;;1.30;;
39772;SDS011;25451;51.960;6.250;2023-07-20T03:48:15;3.13;;;1.48;;
39772;SDS011;25451;51.960;6.250;2023-07-20T03:50:41;2.28;;;1.27;;
39772;SDS011;25451;51.960;6.250;2023-07-20T03:53:06;3.30;;;1.23;;
39772;SDS011;25451;51.960;6.250;2023-07-20T03:55:32;2.47;;;1.30;;
39772;SDS011;25451;51.960;6.250;2023-07-20T03:57:57;2.38;;;1.50;;
39772;SDS011;25451;51.960;6.250;2023-07-20T04:00:23;2.67;;;1.27;;
39772;SDS011;25451;51.960;6.250;2023-07-20T04:02:48;4.10;;;1.70;;
39772;SDS011;25451;51.960;6.250;2023-07-20T04:05:14;2.60;;;1.60;;
39772;SDS011;25451;51.960;6.250;2023-07-20T04:07:39;2.42;;;1.30;;
39772;SDS011;25451;51.960;6.250;2023-07-20T04:10:04;2.20;;;1.40;;
39772;SDS011;25451;51.960;6.250;2023-07-20T04:12:30;2.50;;;1.37;;
39772;SDS011;25451;51.960;6.250;2023-07-20T04:14:55;4.27;;;1.47;;
39772;SDS011;25451;51.960;6.250;2023-07-20T04:17:21;2.27;;;1.47;;
39772;SDS011;25451;51.960;6.250;2023-07-20T04:19:46;2.67;;;1.40;;
39772;SDS011;25451;51.960;6.250;2023-07-20T04:22:11;3.63;;;1.58;;
39772;SDS011;25451;51.960;6.250;2023-07-20T04:24:37;2.47;;;1.30;;
39772;SDS011;25451;51.960;6.250;2023-07-20T04:27:02;2.20;;;1.40;;
39772;SDS011;25451;51.960;6.250;2023-07-20T04:29:28;2.30;;;1.33;;
39772;SDS011;25451;51.960;6.250;2023-07-20T04:31:53;2.10;;;1.20;;
39772;SDS011;25451;51.960;6.250;2023-07-20T04:34:18;2.37;;;1.33;;
39772;SDS011;25451;51.960;6.250;2023-07-20T04:36:44;2.50;;;1.40;;
39772;SDS011;25451;51.960;6.250;2023-07-20T04:39:09;1.57;;;1.10;;
39772;SDS011;25451;51.960;6.250;2023-07-20T04:41:35;2.22;;;1.27;;
39772;SDS011;25451;51.960;6.250;2023-07-20T04:44:00;2.10;;;1.30;;
39772;SDS011;25451;51.960;6.250;2023-07-20T04:46:26;3.03;;;1.40;;
39772;SDS011;25451;51.960;6.250;2023-07-20T04:48:51;2.63;;;1.37;;
39772;SDS011;25451;51.960;6.250;2023-07-20T04:51:16;2.20;;;1.23;;
39772;SDS011;25451;51.960;6.250;2023-07-20T04:53:45;2.53;;;1.50;;
39772;SDS011;25451;51.960;6.250;2023-07-20T04:56:11;2.72;;;1.35;;
39772;SDS011;25451;51.960;6.250;2023-07-20T04:58:37;2.67;;;1.40;;
39772;SDS011;25451;51.960;6.250;2023-07-20T05:01:02;2.60;;;1.57;;
39772;SDS011;25451;51.960;6.250;2023-07-20T05:03:27;2.33;;;1.30;;
39772;SDS011;25451;51.960;6.250;2023-07-20T05:05:53;2.08;;;1.40;;
39772;SDS011;25451;51.960;6.250;2023-07-20T05:08:18;2.70;;;1.20;;
39772;SDS011;25451;51.960;6.250;2023-07-20T05:10:43;2.13;;;1.20;;
39772;SDS011;25451;51.960;6.250;2023-07-20T05:13:09;2.73;;;1.17;;
39772;SDS011;25451;51.960;6.250;2023-07-20T05:15:34;2.00;;;1.30;;
39772;SDS011;25451;51.960;6.250;2023-07-20T05:17:59;2.10;;;1.30;;
39772;SDS011;25451;51.960;6.250;2023-07-20T05:20:25;3.30;;;1.50;;
39772;SDS011;25451;51.960;6.250;2023-07-20T05:22:50;2.70;;;1.60;;
39772;SDS011;25451;51.960;6.250;2023-07-20T05:25:17;2.55;;;1.50;;
39772;SDS011;25451;51.960;6.250;2023-07-20T05:27:43;1.97;;;1.20;;
39772;SDS011;25451;51.960;6.250;2023-07-20T05:30:08;2.33;;;1.50;;
39772;SDS011;25451;51.960;6.250;2023-07-20T05:32:34;3.10;;;1.60;;
39772;SDS011;25451;51.960;6.250;2023-07-20T05:34:59;4.70;;;1.97;;
39772;SDS011;25451;51.960;6.250;2023-07-20T05:37:25;2.83;;;1.63;;
39772;SDS011;25451;51.960;6.250;2023-07-20T05:39:50;3.50;;;1.70;;
39772;SDS011;25451;51.960;6.250;2023-07-20T05:42:16;3.35;;;1.67;;
39772;SDS011;25451;51.960;6.250;2023-07-20T05:44:41;2.67;;;1.40;;
39772;SDS011;25451;51.960;6.250;2023-07-20T05:47:07;3.20;;;1.53;;
39772;SDS011;25451;51.960;6.250;2023-07-20T05:49:32;2.55;;;1.42;;
39772;SDS011;25451;51.960;6.250;2023-07-20T05:51:58;2.30;;;1.40;;
39772;SDS011;25451;51.960;6.250;2023-07-20T05:54:24;2.33;;;1.20;;
39772;SDS011;25451;51.960;6.250;2023-07-20T05:56:50;2.57;;;1.20;;
39772;SDS011;25451;51.960;6.250;2023-07-20T05:59:15;2.20;;;1.20;;
39772;SDS011;25451;51.960;6.250;2023-07-20T06:01:41;2.33;;;1.20;;
39772;SDS011;25451;51.960;6.250;2023-07-20T06:04:08;2.85;;;1.40;;
39772;SDS011;25451;51.960;6.250;2023-07-20T06:06:34;2.40;;;1.13;;
39772;SDS011;25451;51.960;6.250;2023-07-20T06:09:00;2.47;;;1.03;;
39772;SDS011;25451;51.960;6.250;2023-07-20T06:11:28;1.67;;;0.98;;
39772;SDS011;25451;51.960;6.250;2023-07-20T06:13:54;2.40;;;1.10;;
39772;SDS011;25451;51.960;6.250;2023-07-20T06:16:19;2.17;;;1.20;;
39772;SDS011;25451;51.960;6.250;2023-07-20T06:18:44;2.97;;;1.20;;
39772;SDS011;25451;51.960;6.250;2023-07-20T06:21:10;2.88;;;1.10;;
39772;SDS011;25451;51.960;6.250;2023-07-20T06:23:35;2.43;;;1.10;;
39772;SDS011;25451;51.960;6.250;2023-07-20T06:26:01;2.17;;;1.10;;
39772;SDS011;25451;51.960;6.250;2023-07-20T06:28:26;2.33;;;1.10;;
39772;SDS011;25451;51.960;6.250;2023-07-20T06:30:51;1.87;;;1.10;;
39772;SDS011;25451;51.960;6.250;2023-07-20T06:33:17;1.50;;;1.00;;
39772;SDS011;25451;51.960;6.250;2023-07-20T06:35:42;1.92;;;1.00;;
39772;SDS011;25451;51.960;6.250;2023-07-20T06:38:08;1.77;;;0.90;;
39772;SDS011;25451;51.960;6.250;2023-07-20T06:40:33;1.87;;;1.00;;
39772;SDS011;25451;51.960;6.250;2023-07-20T06:42:59;2.03;;;0.90;;
39772;SDS011;25451;51.960;6.250;2023-07-20T06:45:24;1.47;;;0.70;;
39772;SDS011;25451;51.960;6.250;2023-07-20T06:47:49;2.20;;;0.90;;
39772;SDS011;25451;51.960;6.250;2023-07-20T06:50:15;3.07;;;0.80;;
39772;SDS011;25451;51.960;6.250;2023-07-20T06:52:40;2.08;;;0.88;;
39772;SDS011;25451;51.960;6.250;2023-07-20T06:55:06;3.23;;;0.90;;
39772;SDS011;25451;51.960;6.250;2023-07-20T06:57:32;1.80;;;0.77;;
39772;SDS011;25451;51.960;6.250;2023-07-20T06:59:57;1.73;;;0.83;;
39772;SDS011;25451;51.960;6.250;2023-07-20T07:02:22;3.73;;;0.90;;
39772;SDS011;25451;51.960;6.250;2023-07-20T07:04:48;1.30;;;0.80;;
39772;SDS011;25451;51.960;6.250;2023-07-20T07:07:13;2.10;;;0.90;;
39772;SDS011;25451;51.960;6.250;2023-07-20T07:09:39;1.17;;;0.70;;
39772;SDS011;25451;51.960;6.250;2023-07-20T07:12:05;1.33;;;0.80;;
39772;SDS011;25451;51.960;6.250;2023-07-20T07:14:30;1.58;;;0.80;;
39772;SDS011;25451;51.960;6.250;2023-07-20T07:16:56;1.60;;;0.80;;
39772;SDS011;25451;51.960;6.250;2023-07-20T07:19:21;1.67;;;0.80;;
39772;SDS011;25451;51.960;6.250;2023-07-20T07:21:46;1.43;;;0.70;;
39772;SDS011;25451;51.960;6.250;2023-07-20T07:24:12;1.10;;;0.70;;
39772;SDS011;25451;51.960;6.250;2023-07-20T07:26:37;2.20;;;0.70;;
39772;SDS011;25451;51.960;6.250;2023-07-20T07:29:03;1.90;;;0.80;;
39772;SDS011;25451;51.960;6.250;2023-07-20T07:31:28;1.20;;;0.70;;
39772;SDS011;25451;51.960;6.250;2023-07-20T07:33:56;2.28;;;0.80;;
39772;SDS011;25451;51.960;6.250;2023-07-20T07:36:21;1.63;;;0.80;;
39772;SDS011;25451;51.960;6.250;2023-07-20T07:38:49;2.53;;;1.02;;
39772;SDS011;25451;51.960;6.250;2023-07-20T07:41:14;2.27;;;0.80;;
39772;SDS011;25451;51.960;6.250;2023-07-20T07:43:40;2.23;;;0.70;;
39772;SDS011;25451;51.960;6.250;2023-07-20T07:46:05;1.73;;;0.63;;
39772;SDS011;25451;51.960;6.250;2023-07-20T07:48:30;1.93;;;0.70;;
39772;SDS011;25451;51.960;6.250;2023-07-20T07:50:56;1.90;;;0.80;;
39772;SDS011;25451;51.960;6.250;2023-07-20T07:53:21;1.43;;;0.80;;
39772;SDS011;25451;51.960;6.250;2023-07-20T07:55:49;0.85;;;0.60;;
39772;SDS011;25451;51.960;6.250;2023-07-20T07:58:15;0.80;;;0.70;;
39772;SDS011;25451;51.960;6.250;2023-07-20T08:00:40;2.65;;;0.70;;
39772;SDS011;25451;51.960;6.250;2023-07-20T08:03:06;1.57;;;0.70;;
39772;SDS011;25451;51.960;6.250;2023-07-20T08:05:32;1.83;;;0.87;;
39772;SDS011;25451;51.960;6.250;2023-07-20T08:07:58;1.02;;;0.70;;
39772;SDS011;25451;51.960;6.250;2023-07-20T08:10:23;1.60;;;0.70;;
39772;SDS011;25451;51.960;6.250;2023-07-20T08:12:49;2.70;;;0.70;;
39772;SDS011;25451;51.960;6.250;2023-07-20T08:15:14;1.25;;;0.70;;
39772;SDS011;25451;51.960;6.250;2023-07-20T08:17:40;0.87;;;0.60;;
39772;SDS011;25451;51.960;6.250;2023-07-20T08:20:07;0.98;;;0.63;;
39772;SDS011;25451;51.960;6.250;2023-07-20T08:22:36;1.87;;;0.77;;
39772;SDS011;25451;51.960;6.250;2023-07-20T08:25:01;0.97;;;0.70;;
39772;SDS011;25451;51.960;6.250;2023-07-20T08:27:27;1.88;;;0.80;;
39772;SDS011;25451;51.960;6.250;2023-07-20T08:29:52;3.50;;;0.80;;
39772;SDS011;25451;51.960;6.250;2023-07-20T08:32:17;1.23;;;0.80;;
39772;SDS011;25451;51.960;6.250;2023-07-20T08:34:43;11.60;;;0.90;;
39772;SDS011;25451;51.960;6.250;2023-07-20T08:37:08;4.00;;;0.70;;
39772;SDS011;25451;51.960;6.250;2023-07-20T08:39:35;1.95;;;0.60;;
39772;SDS011;25451;51.960;6.250;2023-07-20T08:42:01;1.20;;;0.68;;
39772;SDS011;25451;51.960;6.250;2023-07-20T08:44:29;1.67;;;0.80;;
39772;SDS011;25451;51.960;6.250;2023-07-20T08:46:56;1.33;;;0.70;;
39772;SDS011;25451;51.960;6.250;2023-07-20T08:49:23;1.10;;;0.70;;
39772;SDS011;25451;51.960;6.250;2023-07-20T08:51:49;1.50;;;0.77;;
39772;SDS011;25451;51.960;6.250;2023-07-20T08:54:16;2.00;;;0.63;;
39772;SDS011;25451;51.960;6.250;2023-07-20T08:56:42;3.07;;;0.80;;
39772;SDS011;25451;51.960;6.250;2023-07-20T08:59:10;1.13;;;0.70;;
39772;SDS011;25451;51.960;6.250;2023-07-20T09:01:38;1.20;;;0.70;;
39772;SDS011;25451;51.960;6.250;2023-07-20T09:04:04;2.15;;;0.70;;
39772;SDS011;25451;51.960;6.250;2023-07-20T09:06:29;2.70;;;0.70;;
39772;SDS011;25451;51.960;6.250;2023-07-20T09:08:55;3.97;;;0.70;;
39772;SDS011;25451;51.960;6.250;2023-07-20T09:11:21;1.10;;;0.70;;
39772;SDS011;25451;51.960;6.250;2023-07-20T09:13:46;1.67;;;0.70;;
39772;SDS011;25451;51.960;6.250;2023-07-20T09:16:15;1.73;;;0.63;;
39772;SDS011;25451;51.960;6.250;2023-07-20T09:18:41;1.27;;;0.53;;
39772;SDS011;25451;51.960;6.250;2023-07-20T09:21:06;1.38;;;0.60;;
39772;SDS011;25451;51.960;6.250;2023-07-20T09:23:38;1.37;;;0.60;;
39772;SDS011;25451;51.960;6.250;2023-07-20T09:26:13;1.00;;;0.57;;
39772;SDS011;25451;51.960;6.250;2023-07-20T09:28:50;1.05;;;0.70;;
39772;SDS011;25451;51.960;6.250;2023-07-20T09:31:20;2.47;;;0.70;;
39772;SDS011;25451;51.960;6.250;2023-07-20T09:33:47;2.92;;;0.60;;
39772;SDS011;25451;51.960;6.250;2023-07-20T09:36:13;1.83;;;0.70;;
39772;SDS011;25451;51.960;6.250;2023-07-20T09:38:42;1.30;;;0.70;;
39772;SDS011;25451;51.960;6.250;2023-07-20T09:41:14;1.40;;;0.60;;
39772;SDS011;25451;51.960;6.250;2023-07-20T09:43:40;2.03;;;0.70;;
39772;SDS011;25451;51.960;6.250;2023-07-20T09:46:07;1.35;;;0.70;;
39772;SDS011;25451;51.960;6.250;2023-07-20T09:48:32;1.43;;;0.60;;
39772;SDS011;25451;51.960;6.250;2023-07-20T09:50:57;1.53;;;0.80;;
39772;SDS011;25451;51.960;6.250;2023-07-20T09:53:24;2.20;;;0.70;;
39772;SDS011;25451;51.960;6.250;2023-07-20T09:55:50;1.15;;;0.80;;
39772;SDS011;25451;51.960;6.250;2023-07-20T09:58:17;1.52;;;0.80;;
39772;SDS011;25451;51.960;6.250;2023-07-20T10:00:43;2.47;;;0.80;;
39772;SDS011;25451;51.960;6.250;2023-07-20T10:03:13;1.27;;;0.80;;
39772;SDS011;25451;51.960;6.250;2023-07-20T10:05:43;2.58;;;0.77;;
39772;SDS011;25451;51.960;6.250;2023-07-20T10:08:11;2.45;;;0.70;;
39772;SDS011;25451;51.960;6.250;2023-07-20T10:10:38;1.17;;;0.70;;
39772;SDS011;25451;51.960;6.250;2023-07-20T10:13:08;0.93;;;0.60;;
39772;SDS011;25451;51.960;6.250;2023-07-20T10:16:22;1.88;;;0.60;;
39772;SDS011;25451;51.960;6.250;2023-07-20T10:21:37;0.77;;;0.50;;
39772;SDS011;25451;51.960;6.250;2023-07-20T10:24:07;0.90;;;0.60;;
39772;SDS011;25451;51.960;6.250;2023-07-20T10:26:34;0.93;;;0.57;;
39772;SDS011;25451;51.960;6.250;2023-07-20T10:29:00;0.77;;;0.60;;
39772;SDS011;25451;51.960;6.250;2023-07-20T10:31:26;1.35;;;0.63;;
39772;SDS011;25451;51.960;6.250;2023-07-20T10:33:53;0.80;;;0.60;;
39772;SDS011;25451;51.960;6.250;2023-07-20T10:36:26;0.90;;;0.60;;
39772;SDS011;25451;51.960;6.250;2023-07-20T10:38:56;0.85;;;0.60;;
39772;SDS011;25451;51.960;6.250;2023-07-20T10:41:34;1.73;;;0.70;;
39772;SDS011;25451;51.960;6.250;2023-07-20T10:44:04;3.35;;;0.77;;
39772;SDS011;25451;51.960;6.250;2023-07-20T10:49:03;1.17;;;0.60;;
39772;SDS011;25451;51.960;6.250;2023-07-20T10:51:38;0.80;;;0.55;;
39772;SDS011;25451;51.960;6.250;2023-07-20T10:56:42;1.20;;;0.70;;
39772;SDS011;25451;51.960;6.250;2023-07-20T11:01:49;1.55;;;0.70;;
39772;SDS011;25451;51.960;6.250;2023-07-20T11:04:37;0.80;;;0.60;;
39772;SDS011;25451;51.960;6.250;2023-07-20T11:07:06;1.75;;;0.60;;
39772;SDS011;25451;51.960;6.250;2023-07-20T11:09:35;2.53;;;0.70;;
39772;SDS011;25451;51.960;6.250;2023-07-20T11:12:15;1.95;;;0.70;;
39772;SDS011;25451;51.960;6.250;2023-07-20T11:14:42;1.23;;;0.60;;
39772;SDS011;25451;51.960;6.250;2023-07-20T11:17:11;1.10;;;0.60;;
39772;SDS011;25451;51.960;6.250;2023-07-20T11:19:40;2.20;;;0.60;;
39772;SDS011;25451;51.960;6.250;2023-07-20T11:22:06;2.15;;;0.70;;
39772;SDS011;25451;51.960;6.250;2023-07-20T11:24:33;0.70;;;0.53;;
39772;SDS011;25451;51.960;6.250;2023-07-20T11:26:58;0.98;;;0.57;;
39772;SDS011;25451;51.960;6.250;2023-07-20T11:29:25;2.03;;;0.80;;
39772;SDS011;25451;51.960;6.250;2023-07-20T11:31:50;1.30;;;0.63;;
39772;SDS011;25451;51.960;6.250;2023-07-20T11:34:16;2.63;;;0.63;;
39772;SDS011;25451;51.960;6.250;2023-07-20T11:36:44;1.48;;;0.50;;
39772;SDS011;25451;51.960;6.250;2023-07-20T11:39:12;1.67;;;0.50;;
39772;SDS011;25451;51.960;6.250;2023-07-20T11:41:38;1.15;;;0.60;;
39772;SDS011;25451;51.960;6.250;2023-07-20T11:44:09;2.95;;;0.90;;
39772;SDS011;25451;51.960;6.250;2023-07-20T11:46:41;1.63;;;0.63;;
39772;SDS011;25451;51.960;6.250;2023-07-20T11:49:07;1.80;;;0.82;;
39772;SDS011;25451;51.960;6.250;2023-07-20T11:51:33;4.40;;;0.97;;
39772;SDS011;25451;51.960;6.250;2023-07-20T11:54:00;2.22;;;0.90;;
39772;SDS011;25451;51.960;6.250;2023-07-20T11:56:27;2.83;;;0.73;;
39772;SDS011;25451;51.960;6.250;2023-07-20T11:58:55;1.80;;;0.63;;
39772;SDS011;25451;51.960;6.250;2023-07-20T12:01:24;1.00;;;0.65;;
39772;SDS011;25451;51.960;6.250;2023-07-20T12:03:53;1.13;;;0.60;;
39772;SDS011;25451;51.960;6.250;2023-07-20T12:06:22;0.90;;;0.70;;
39772;SDS011;25451;51.960;6.250;2023-07-20T12:08:49;2.03;;;0.80;;
39772;SDS011;25451;51.960;6.250;2023-07-20T12:11:14;0.95;;;0.60;;
39772;SDS011;25451;51.960;6.250;2023-07-20T12:13:58;1.50;;;0.90;;
39772;SDS011;25451;51.960;6.250;2023-07-20T12:16:26;1.53;;;0.70;;
39772;SDS011;25451;51.960;6.250;2023-07-20T12:18:59;1.02;;;0.60;;
39772;SDS011;25451;51.960;6.250;2023-07-20T12:21:26;1.80;;;0.60;;
39772;SDS011;25451;51.960;6.250;2023-07-20T12:23:51;1.25;;;0.60;;
39772;SDS011;25451;51.960;6.250;2023-07-20T12:26:17;0.87;;;0.67;;
39772;SDS011;25451;51.960;6.250;2023-07-20T12:28:42;1.37;;;0.70;;
39772;SDS011;25451;51.960;6.250;2023-07-20T12:31:08;1.00;;;0.70;;
39772;SDS011;25451;51.960;6.250;2023-07-20T12:33:35;1.10;;;0.60;;
39772;SDS011;25451;51.960;6.250;2023-07-20T12:36:01;1.13;;;0.70;;
39772;SDS011;25451;51.960;6.250;2023-07-20T12:38:27;0.77;;;0.60;;
39772;SDS011;25451;51.960;6.250;2023-07-20T12:40:53;1.25;;;0.70;;
39772;SDS011;25451;51.960;6.250;2023-07-20T12:43:21;1.58;;;0.68;;
39772;SDS011;25451;51.960;6.250;2023-07-20T12:45:47;1.67;;;0.70;;
39772;SDS011;25451;51.960;6.250;2023-07-20T12:48:12;1.47;;;0.70;;
39772;SDS011;25451;51.960;6.250;2023-07-20T12:50:38;2.50;;;0.80;;
39772;SDS011;25451;51.960;6.250;2023-07-20T12:53:03;1.20;;;0.80;;
39772;SDS011;25451;51.960;6.250;2023-07-20T12:55:28;1.50;;;0.80;;
39772;SDS011;25451;51.960;6.250;2023-07-20T12:57:54;1.27;;;0.70;;
39772;SDS011;25451;51.960;6.250;2023-07-20T13:00:19;1.33;;;0.80;;
39772;SDS011;25451;51.960;6.250;2023-07-20T13:02:47;3.00;;;0.80;;
39772;SDS011;25451;51.960;6.250;2023-07-20T13:05:12;1.57;;;0.97;;
39772;SDS011;25451;51.960;6.250;2023-07-20T13:07:38;1.13;;;0.70;;
39772;SDS011;25451;51.960;6.250;2023-07-20T13:10:04;2.50;;;0.90;;
39772;SDS011;25451;51.960;6.250;2023-07-20T13:12:30;3.05;;;1.00;;
39772;SDS011;25451;51.960;6.250;2023-07-20T13:14:58;2.70;;;1.00;;
39772;SDS011;25451;51.960;6.250;2023-07-20T13:17:27;2.40;;;1.00;;
39772;SDS011;25451;51.960;6.250;2023-07-20T13:19:54;1.85;;;0.93;;
39772;SDS011;25451;51.960;6.250;2023-07-20T13:22:20;2.80;;;0.90;;
39772;SDS011;25451;51.960;6.250;2023-07-20T13:24:45;1.83;;;1.00;;
39772;SDS011;25451;51.960;6.250;2023-07-20T13:27:15;1.35;;;0.80;;
39772;SDS011;25451;51.960;6.250;2023-07-20T13:29:41;1.73;;;1.00;;
39772;SDS011;25451;51.960;6.250;2023-07-20T13:32:07;1.40;;;0.80;;
39772;SDS011;25451;51.960;6.250;2023-07-20T13:34:33;1.45;;;0.90;;
39772;SDS011;25451;51.960;6.250;2023-07-20T13:36:58;2.20;;;1.00;;
39772;SDS011;25451;51.960;6.250;2023-07-20T13:39:24;2.43;;;0.90;;
39772;SDS011;25451;51.960;6.250;2023-07-20T13:41:51;1.83;;;1.00;;
39772;SDS011;25451;51.960;6.250;2023-07-20T13:44:17;1.87;;;1.00;;
39772;SDS011;25451;51.960;6.250;2023-07-20T13:46:42;1.80;;;1.00;;
39772;SDS011;25451;51.960;6.250;2023-07-20T13:49:08;1.60;;;0.83;;
39772;SDS011;25451;51.960;6.250;2023-07-20T13:51:33;1.63;;;0.83;;
39772;SDS011;25451;51.960;6.250;2023-07-20T13:53:58;1.47;;;0.90;;
39772;SDS011;25451;51.960;6.250;2023-07-20T13:56:24;1.98;;;0.90;;
39772;SDS011;25451;51.960;6.250;2023-07-20T13:58:50;2.53;;;0.87;;
39772;SDS011;25451;51.960;6.250;2023-07-20T14:01:16;1.90;;;0.90;;
39772;SDS011;25451;51.960;6.250;2023-07-20T14:03:42;1.70;;;0.95;;
39772;SDS011;25451;51.960;6.250;2023-07-20T14:06:08;1.40;;;0.83;;
39772;SDS011;25451;51.960;6.250;2023-07-20T14:08:33;2.40;;;1.00;;
39772;SDS011;25451;51.960;6.250;2023-07-20T14:10:58;1.60;;;0.90;;
39772;SDS011;25451;51.960;6.250;2023-07-20T14:13:24;1.57;;;0.90;;
39772;SDS011;25451;51.960;6.250;2023-07-20T14:15:49;2.50;;;0.90;;
39772;SDS011;25451;51.960;6.250;2023-07-20T14:18:15;1.52;;;0.90;;
39772;SDS011;25451;51.960;6.250;2023-07-20T14:20:40;0.90;;;0.70;;
39772;SDS011;25451;51.960;6.250;2023-07-20T14:23:06;1.47;;;0.87;;
39772;SDS011;25451;51.960;6.250;2023-07-20T14:25:31;1.50;;;0.90;;
39772;SDS011;25451;51.960;6.250;2023-07-20T14:27:58;2.00;;;1.00;;
39772;SDS011;25451;51.960;6.250;2023-07-20T14:30:24;3.22;;;1.00;;
39772;SDS011;25451;51.960;6.250;2023-07-20T14:32:49;2.30;;;1.00;;
39772;SDS011;25451;51.960;6.250;2023-07-20T14:35:14;1.47;;;0.97;;
39772;SDS011;25451;51.960;6.250;2023-07-20T14:37:40;2.10;;;1.00;;
39772;SDS011;25451;51.960;6.250;2023-07-20T14:40:05;2.07;;;1.10;;
39772;SDS011;25451;51.960;6.250;2023-07-20T14:42:31;2.00;;;1.10;;
39772;SDS011;25451;51.960;6.250;2023-07-20T14:44:57;1.73;;;1.00;;
39772;SDS011;25451;51.960;6.250;2023-07-20T14:47:23;2.23;;;1.10;;
39772;SDS011;25451;51.960;6.250;2023-07-20T14:49:48;2.00;;;1.00;;
39772;SDS011;25451;51.960;6.250;2023-07-20T14:52:14;1.70;;;1.00;;
39772;SDS011;25451;51.960;6.250;2023-07-20T14:54:39;1.65;;;0.90;;
39772;SDS011;25451;51.960;6.250;2023-07-20T14:57:04;1.80;;;0.90;;
39772;SDS011;25451;51.960;6.250;2023-07-20T14:59:32;2.40;;;1.02;;
39772;SDS011;25451;51.960;6.250;2023-07-20T15:01:58;1.63;;;0.90;;